sensor_id;sensor_type;location;lat;lon;timestamp;pressure;altitude;pressure_sealevel;temperature;humidity
70750;BME280;58342;45.568;10.008;2023-01-29T00:02:16;101056.03;;;21.04;44.99
70750;BME280;58342;45.568;10.008;2023-01-29T00:04:44;101063.31;;;21.03;44.94
70750;BME280;58342;45.568;10.008;2023-01-29T00:07:11;101047.59;;;20.98;44.80
70750;BME280;58342;45.568;10.008;2023-01-29T00:09:41;101055.22;;;21.00;44.87
70750;BME280;58342;45.568;10.008;2023-01-29T00:12:09;101051.88;;;21.06;44.82
70750;BME280;58342;45.568;10.008;2023-01-29T00:14:36;101056.81;;;21.04;44.78
70750;BME280;58342;45.568;10.008;2023-01-29T00:17:03;101059.88;;;21.06;44.80
70750;BME280;58342;45.568;10.008;2023-01-29T00:19:29;101043.81;;;21.03;44.79
70750;BME280;58342;45.568;10.008;2023-01-29T00:21:57;101051.13;;;21.06;44.96
70750;BME280;58342;45.568;10.008;2023-01-29T00:24:26;101051.88;;;21.06;44.81
70750;BME280;58342;45.568;10.008;2023-01-29T00:26:54;101057.63;;;21.08;44.74
70750;BME280;58342;45.568;10.008;2023-01-29T00:29:20;101060.66;;;21.07;44.72
70750;BME280;58342;45.568;10.008;2023-01-29T00:31:48;101061.44;;;21.07;44.70
70750;BME280;58342;45.568;10.008;2023-01-29T00:34:15;101056.84;;;21.08;44.67
70750;BME280;58342;45.568;10.008;2023-01-29T00:36:43;101045.34;;;21.04;44.73
70750;BME280;58342;45.568;10.008;2023-01-29T00:39:10;101051.47;;;21.04;44.84
70750;BME280;58342;45.568;10.008;2023-01-29T00:41:36;101056.03;;;21.04;44.77
70750;BME280;58342;45.568;10.008;2023-01-29T00:44:22;101056.03;;;21.04;44.73
70750;BME280;58342;45.568;10.008;2023-01-29T00:47:08;101049.47;;;20.94;44.71
70750;BME280;58342;45.568;10.008;2023-01-29T00:49:52;101057.59;;;21.05;44.82
70750;BME280;58342;45.568;10.008;2023-01-29T00:52:19;101061.38;;;21.04;44.86
70750;BME280;58342;45.568;10.008;2023-01-29T00:54:50;101062.53;;;21.03;44.85
70750;BME280;58342;45.568;10.008;2023-01-29T00:57:17;101062.56;;;21.06;44.77
70750;BME280;58342;45.568;10.008;2023-01-29T00:59:44;101040.19;;;20.88;44.80
70750;BME280;58342;45.568;10.008;2023-01-29T01:02:11;101062.94;;;21.05;44.69
70750;BME280;58342;45.568;10.008;2023-01-29T01:04:56;101059.84;;;21.03;44.82
70750;BME280;58342;45.568;10.008;2023-01-29T01:07:24;101059.50;;;21.04;44.70
70750;BME280;58342;45.568;10.008;2023-01-29T01:09:52;101067.88;;;21.03;44.70
70750;BME280;58342;45.568;10.008;2023-01-29T01:12:37;101065.56;;;21.01;44.86
70750;BME280;58342;45.568;10.008;2023-01-29T01:15:06;101061.78;;;21.02;44.62
70750;BME280;58342;45.568;10.008;2023-01-29T01:17:33;101064.44;;;21.02;44.60
70750;BME280;58342;45.568;10.008;2023-01-29T01:20:01;101068.31;;;21.05;44.69
70750;BME280;58342;45.568;10.008;2023-01-29T01:22:27;101050.56;;;20.93;44.68
70750;BME280;58342;45.568;10.008;2023-01-29T01:24:54;101057.53;;;21.01;44.73
70750;BME280;58342;45.568;10.008;2023-01-29T01:27:25;101062.94;;;21.05;44.75
70750;BME280;58342;45.568;10.008;2023-01-29T01:29:52;101044.94;;;20.98;44.63
70750;BME280;58342;45.568;10.008;2023-01-29T01:32:20;101054.53;;;21.06;44.50
70750;BME280;58342;45.568;10.008;2023-01-29T01:34:51;101053.78;;;21.06;44.60
70750;BME280;58342;45.568;10.008;2023-01-29T01:37:19;101053.00;;;21.05;44.50
70750;BME280;58342;45.568;10.008;2023-01-29T01:39:45;101064.88;;;21.08;44.65
70750;BME280;58342;45.568;10.008;2023-01-29T01:42:13;101037.16;;;20.90;44.50
70750;BME280;58342;45.568;10.008;2023-01-29T01:44:58;101057.63;;;21.08;44.56
70750;BME280;58342;45.568;10.008;2023-01-29T01:47:32;101055.69;;;21.05;44.52
70750;BME280;58342;45.568;10.008;2023-01-29T01:50:12;101059.88;;;21.06;44.58
70750;BME280;58342;45.568;10.008;2023-01-29T01:52:44;101051.09;;;21.02;44.40
70750;BME280;58342;45.568;10.008;2023-01-29T01:55:14;101070.22;;;21.08;44.51
70750;BME280;58342;45.568;10.008;2023-01-29T01:57:47;101063.66;;;21.02;44.47
70750;BME280;58342;45.568;10.008;2023-01-29T02:00:17;101074.81;;;21.07;44.42
70750;BME280;58342;45.568;10.008;2023-01-29T02:02:45;101071.72;;;21.05;44.30
70750;BME280;58342;45.568;10.008;2023-01-29T02:05:32;101073.69;;;21.08;44.40
70750;BME280;58342;45.568;10.008;2023-01-29T02:08:30;101072.09;;;21.04;44.35
70750;BME280;58342;45.568;10.008;2023-01-29T02:11:16;101072.91;;;21.08;44.36
70750;BME280;58342;45.568;10.008;2023-01-29T02:13:44;101078.56;;;21.03;44.31
70750;BME280;58342;45.568;10.008;2023-01-29T02:16:13;101080.16;;;21.07;44.32
70750;BME280;58342;45.568;10.008;2023-01-29T02:18:40;101087.41;;;21.07;44.31
70750;BME280;58342;45.568;10.008;2023-01-29T02:27:13;101075.53;;;21.04;44.36
70750;BME280;58342;45.568;10.008;2023-01-29T02:35:51;101088.50;;;21.02;44.25
70750;BME280;58342;45.568;10.008;2023-01-29T02:38:29;101100.31;;;21.01;44.41
70750;BME280;58342;45.568;10.008;2023-01-29T02:43:41;101088.88;;;21.01;44.40
70750;BME280;58342;45.568;10.008;2023-01-29T02:46:27;101086.56;;;20.99;44.40
70750;BME280;58342;45.568;10.008;2023-01-29T02:51:38;101091.13;;;20.99;44.37
70750;BME280;58342;45.568;10.008;2023-01-29T02:54:19;101080.69;;;20.90;44.47
70750;BME280;58342;45.568;10.008;2023-01-29T02:59:35;101099.13;;;20.95;44.34
70750;BME280;58342;45.568;10.008;2023-01-29T03:02:12;101101.78;;;20.95;44.57
70750;BME280;58342;45.568;10.008;2023-01-29T03:04:45;101091.38;;;20.90;44.51
70750;BME280;58342;45.568;10.008;2023-01-29T03:07:17;101104.44;;;20.92;44.39
70750;BME280;58342;45.568;10.008;2023-01-29T03:10:11;101096.41;;;20.92;44.38
70750;BME280;58342;45.568;10.008;2023-01-29T03:12:39;101103.69;;;20.95;44.40
70750;BME280;58342;45.568;10.008;2023-01-29T03:15:10;101094.78;;;20.87;44.43
70750;BME280;58342;45.568;10.008;2023-01-29T03:17:48;101109.78;;;20.92;44.34
70750;BME280;58342;45.568;10.008;2023-01-29T03:20:21;101111.19;;;20.86;44.59
70750;BME280;58342;45.568;10.008;2023-01-29T03:22:54;101116.56;;;20.89;44.28
70750;BME280;58342;45.568;10.008;2023-01-29T03:25:27;101116.94;;;20.88;44.45
70750;BME280;58342;45.568;10.008;2023-01-29T03:28:15;101099.53;;;20.71;44.50
70750;BME280;58342;45.568;10.008;2023-01-29T03:31:07;101117.19;;;20.79;44.45
70750;BME280;58342;45.568;10.008;2023-01-29T03:37:07;101137.19;;;20.89;44.37
70750;BME280;58342;45.568;10.008;2023-01-29T03:39:38;101128.72;;;20.83;44.37
70750;BME280;58342;45.568;10.008;2023-01-29T03:42:31;101139.44;;;20.87;44.29
70750;BME280;58342;45.568;10.008;2023-01-29T03:45:26;101137.91;;;20.86;44.47
70750;BME280;58342;45.568;10.008;2023-01-29T03:48:15;101140.94;;;20.84;44.46
70750;BME280;58342;45.568;10.008;2023-01-29T03:53:28;101127.94;;;20.83;44.45
70750;BME280;58342;45.568;10.008;2023-01-29T03:56:07;101103.31;;;20.67;44.44
70750;BME280;58342;45.568;10.008;2023-01-29T03:59:00;101127.94;;;20.83;44.48
70750;BME280;58342;45.568;10.008;2023-01-29T04:01:53;101124.88;;;20.81;44.46
70750;BME280;58342;45.568;10.008;2023-01-29T04:04:31;101118.72;;;20.80;44.47
70750;BME280;58342;45.568;10.008;2023-01-29T04:07:09;101124.88;;;20.81;44.38
70750;BME280;58342;45.568;10.008;2023-01-29T04:09:48;101125.22;;;20.79;44.25
70750;BME280;58342;45.568;10.008;2023-01-29T04:12:20;101130.97;;;20.81;44.37
70750;BME280;58342;45.568;10.008;2023-01-29T04:14:50;101111.34;;;20.70;44.31
70750;BME280;58342;45.568;10.008;2023-01-29T04:17:22;101125.66;;;20.81;44.37
70750;BME280;58342;45.568;10.008;2023-01-29T04:19:51;101122.91;;;20.78;44.32
70750;BME280;58342;45.568;10.008;2023-01-29T04:22:23;101117.09;;;20.72;44.37
70750;BME280;58342;45.568;10.008;2023-01-29T04:24:52;101126.75;;;20.80;44.31
70750;BME280;58342;45.568;10.008;2023-01-29T04:27:42;101115.34;;;20.83;44.36
70750;BME280;58342;45.568;10.008;2023-01-29T04:30:22;101088.81;;;20.68;44.38
70750;BME280;58342;45.568;10.008;2023-01-29T04:33:25;101116.13;;;20.84;44.29
70750;BME280;58342;45.568;10.008;2023-01-29T04:36:17;101102.16;;;20.68;44.28
70750;BME280;58342;45.568;10.008;2023-01-29T04:39:12;101132.16;;;20.84;44.20
70750;BME280;58342;45.568;10.008;2023-01-29T04:42:09;101124.16;;;20.84;44.21
70750;BME280;58342;45.568;10.008;2023-01-29T04:55:19;101134.84;;;20.84;44.26
70750;BME280;58342;45.568;10.008;2023-01-29T04:58:06;101131.38;;;20.83;44.17
70750;BME280;58342;45.568;10.008;2023-01-29T05:00:42;101107.09;;;20.66;44.21
70750;BME280;58342;45.568;10.008;2023-01-29T05:03:14;101119.50;;;20.81;44.27
70750;BME280;58342;45.568;10.008;2023-01-29T05:05:44;101126.81;;;20.84;44.17
70750;BME280;58342;45.568;10.008;2023-01-29T05:08:18;101126.84;;;20.87;44.22
70750;BME280;58342;45.568;10.008;2023-01-29T05:10:48;101109.50;;;20.74;44.11
70750;BME280;58342;45.568;10.008;2023-01-29T05:13:16;101110.69;;;20.77;44.08
70750;BME280;58342;45.568;10.008;2023-01-29T05:15:58;101127.63;;;20.88;44.09
70750;BME280;58342;45.568;10.008;2023-01-29T05:18:28;101129.91;;;20.89;44.21
70750;BME280;58342;45.568;10.008;2023-01-29T05:20:56;101131.84;;;20.89;44.13
70750;BME280;58342;45.568;10.008;2023-01-29T05:23:27;101136.50;;;20.92;43.94
70750;BME280;58342;45.568;10.008;2023-01-29T05:25:56;101133.03;;;20.91;44.00
70750;BME280;58342;45.568;10.008;2023-01-29T05:28:23;101139.19;;;20.92;43.99
70750;BME280;58342;45.568;10.008;2023-01-29T05:30:54;101138.78;;;20.93;44.11
70750;BME280;58342;45.568;10.008;2023-01-29T05:33:26;101125.72;;;20.88;44.06
70750;BME280;58342;45.568;10.008;2023-01-29T05:35:55;101125.69;;;20.85;43.94
70750;BME280;58342;45.568;10.008;2023-01-29T05:38:24;101138.78;;;20.93;43.99
70750;BME280;58342;45.568;10.008;2023-01-29T05:41:00;101142.25;;;20.94;44.04
70750;BME280;58342;45.568;10.008;2023-01-29T05:43:28;101136.13;;;20.93;43.87
70750;BME280;58342;45.568;10.008;2023-01-29T05:45:57;101141.09;;;20.95;44.01
70750;BME280;58342;45.568;10.008;2023-01-29T05:48:25;101143.78;;;20.95;44.03
70750;BME280;58342;45.568;10.008;2023-01-29T05:50:53;101112.56;;;20.76;44.06
70750;BME280;58342;45.568;10.008;2023-01-29T05:53:19;101134.44;;;20.85;44.40
70750;BME280;58342;45.568;10.008;2023-01-29T05:55:46;101136.41;;;20.88;44.65
70750;BME280;58342;45.568;10.008;2023-01-29T05:58:13;101135.28;;;20.89;44.57
70750;BME280;58342;45.568;10.008;2023-01-29T06:00:39;101154.56;;;21.02;44.53
70750;BME280;58342;45.568;10.008;2023-01-29T06:03:05;101148.03;;;20.99;44.40
70750;BME280;58342;45.568;10.008;2023-01-29T06:05:32;101140.75;;;20.96;44.26
70750;BME280;58342;45.568;10.008;2023-01-29T06:07:58;101138.31;;;20.88;44.09
70750;BME280;58342;45.568;10.008;2023-01-29T06:10:25;101159.56;;;21.03;44.11
70750;BME280;58342;45.568;10.008;2023-01-29T06:12:51;101151.44;;;20.96;43.93
70750;BME280;58342;45.568;10.008;2023-01-29T06:15:17;101150.25;;;20.94;43.85
70750;BME280;58342;45.568;10.008;2023-01-29T06:17:44;101143.28;;;20.89;43.89
70750;BME280;58342;45.568;10.008;2023-01-29T06:20:10;101159.56;;;21.03;43.87
70750;BME280;58342;45.568;10.008;2023-01-29T06:22:36;101151.88;;;20.98;43.69
70750;BME280;58342;45.568;10.008;2023-01-29T06:25:02;101163.41;;;21.06;43.69
70750;BME280;58342;45.568;10.008;2023-01-29T06:27:28;101165.28;;;21.05;43.46
70750;BME280;58342;45.568;10.008;2023-01-29T06:29:54;101156.78;;;20.96;43.48
70750;BME280;58342;45.568;10.008;2023-01-29T06:32:20;101179.13;;;21.11;43.37
70750;BME280;58342;45.568;10.008;2023-01-29T06:34:46;101179.13;;;21.11;43.32
70750;BME280;58342;45.568;10.008;2023-01-29T06:37:11;101184.47;;;21.11;43.24
70750;BME280;58342;45.568;10.008;2023-01-29T06:39:37;101182.59;;;21.11;43.13
70750;BME280;58342;45.568;10.008;2023-01-29T06:42:03;101181.03;;;21.10;43.20
70750;BME280;58342;45.568;10.008;2023-01-29T06:44:29;101172.56;;;21.05;43.19
70750;BME280;58342;45.568;10.008;2023-01-29T06:46:55;101186.38;;;21.10;42.99
70750;BME280;58342;45.568;10.008;2023-01-29T06:49:21;101186.38;;;21.10;42.95
70750;BME280;58342;45.568;10.008;2023-01-29T06:51:47;101183.69;;;21.10;43.08
70750;BME280;58342;45.568;10.008;2023-01-29T06:54:13;101189.44;;;21.09;42.89
70750;BME280;58342;45.568;10.008;2023-01-29T06:56:39;101179.78;;;21.01;42.92
70750;BME280;58342;45.568;10.008;2023-01-29T06:59:05;101196.69;;;21.12;42.87
70750;BME280;58342;45.568;10.008;2023-01-29T07:01:31;101180.13;;;20.99;42.81
70750;BME280;58342;45.568;10.008;2023-01-29T07:03:57;101202.00;;;21.08;42.65
70750;BME280;58342;45.568;10.008;2023-01-29T07:06:27;101214.25;;;21.09;42.68
70750;BME280;58342;45.568;10.008;2023-01-29T07:08:54;101213.09;;;21.10;42.70
70750;BME280;58342;45.568;10.008;2023-01-29T07:11:20;101210.81;;;21.09;42.58
70750;BME280;58342;45.568;10.008;2023-01-29T07:13:46;101212.25;;;21.03;42.73
70750;BME280;58342;45.568;10.008;2023-01-29T07:16:12;101231.06;;;21.10;42.66
70750;BME280;58342;45.568;10.008;2023-01-29T07:18:42;101226.72;;;20.98;42.49
70750;BME280;58342;45.568;10.008;2023-01-29T07:21:07;101220.16;;;20.96;42.61
70750;BME280;58342;45.568;10.008;2023-01-29T07:23:34;101237.56;;;21.09;42.60
70750;BME280;58342;45.568;10.008;2023-01-29T07:26:01;101225.09;;;20.94;42.55
70750;BME280;58342;45.568;10.008;2023-01-29T07:28:28;101242.91;;;21.09;42.51
70750;BME280;58342;45.568;10.008;2023-01-29T07:30:57;101249.00;;;21.09;42.65
70750;BME280;58342;45.568;10.008;2023-01-29T07:33:24;101245.16;;;21.07;42.54
70750;BME280;58342;45.568;10.008;2023-01-29T07:35:49;101227.00;;;20.93;42.53
70750;BME280;58342;45.568;10.008;2023-01-29T07:38:15;101237.28;;;20.91;42.42
70750;BME280;58342;45.568;10.008;2023-01-29T07:40:41;101248.84;;;20.99;42.52
70750;BME280;58342;45.568;10.008;2023-01-29T07:43:08;101254.31;;;21.06;42.45
70750;BME280;58342;45.568;10.008;2023-01-29T07:45:36;101262.72;;;21.08;42.36
70750;BME280;58342;45.568;10.008;2023-01-29T07:48:03;101230.38;;;20.90;42.38
70750;BME280;58342;45.568;10.008;2023-01-29T07:50:31;101264.97;;;21.02;42.40
70750;BME280;58342;45.568;10.008;2023-01-29T07:52:57;101261.56;;;21.05;42.54
70750;BME280;58342;45.568;10.008;2023-01-29T07:55:24;101258.06;;;21.01;42.91
70750;BME280;58342;45.568;10.008;2023-01-29T07:57:59;101258.69;;;20.91;43.45
70750;BME280;58342;45.568;10.008;2023-01-29T08:00:26;101255.16;;;20.87;43.97
70750;BME280;58342;45.568;10.008;2023-01-29T08:03:01;101251.34;;;20.88;44.24
70750;BME280;58342;45.568;10.008;2023-01-29T08:05:28;101261.69;;;20.90;44.37
70750;BME280;58342;45.568;10.008;2023-01-29T08:07:54;101269.00;;;20.93;44.44
70750;BME280;58342;45.568;10.008;2023-01-29T08:10:21;101265.13;;;20.90;44.53
70750;BME280;58342;45.568;10.008;2023-01-29T08:12:53;101248.50;;;20.78;44.64
70750;BME280;58342;45.568;10.008;2023-01-29T08:15:20;101277.03;;;20.93;44.73
70750;BME280;58342;45.568;10.008;2023-01-29T08:17:47;101268.88;;;20.86;44.70
70750;BME280;58342;45.568;10.008;2023-01-29T08:20:12;101289.75;;;20.99;44.56
70750;BME280;58342;45.568;10.008;2023-01-29T08:22:38;101287.78;;;20.96;44.66
70750;BME280;58342;45.568;10.008;2023-01-29T08:25:04;101290.44;;;20.96;44.46
70750;BME280;58342;45.568;10.008;2023-01-29T08:27:30;101291.97;;;20.97;44.55
70750;BME280;58342;45.568;10.008;2023-01-29T08:29:57;101282.38;;;20.93;44.45
70750;BME280;58342;45.568;10.008;2023-01-29T08:32:24;101295.00;;;20.96;44.53
70750;BME280;58342;45.568;10.008;2023-01-29T08:34:52;101298.41;;;20.93;44.54
70750;BME280;58342;45.568;10.008;2023-01-29T08:37:19;101284.50;;;20.84;44.71
70750;BME280;58342;45.568;10.008;2023-01-29T08:39:46;101294.97;;;20.92;44.84
70750;BME280;58342;45.568;10.008;2023-01-29T08:42:12;101298.41;;;20.93;44.92
70750;BME280;58342;45.568;10.008;2023-01-29T08:44:38;101282.50;;;20.77;44.92
70750;BME280;58342;45.568;10.008;2023-01-29T08:47:05;101295.25;;;20.87;45.18
70750;BME280;58342;45.568;10.008;2023-01-29T08:49:31;101304.81;;;20.88;45.70
70750;BME280;58342;45.568;10.008;2023-01-29T08:51:58;101309.00;;;20.89;45.80
70750;BME280;58342;45.568;10.008;2023-01-29T08:54:24;101304.81;;;20.88;45.91
70750;BME280;58342;45.568;10.008;2023-01-29T08:56:52;101304.28;;;20.79;45.88
70750;BME280;58342;45.568;10.008;2023-01-29T08:59:20;101296.63;;;20.78;46.32
70750;BME280;58342;45.568;10.008;2023-01-29T09:01:48;101312.28;;;20.79;46.62
70750;BME280;58342;45.568;10.008;2023-01-29T09:04:16;101297.22;;;20.68;46.39
70750;BME280;58342;45.568;10.008;2023-01-29T09:06:42;101309.50;;;20.72;46.99
70750;BME280;58342;45.568;10.008;2023-01-29T09:09:09;101341.53;;;20.91;47.44
70750;BME280;58342;45.568;10.008;2023-01-29T09:11:36;101346.53;;;20.93;47.13
70750;BME280;58342;45.568;10.008;2023-01-29T09:14:05;101341.47;;;20.88;47.91
70750;BME280;58342;45.568;10.008;2023-01-29T09:16:31;101338.78;;;20.88;48.05
70750;BME280;58342;45.568;10.008;2023-01-29T09:18:57;101350.41;;;20.95;47.83
70750;BME280;58342;45.568;10.008;2023-01-29T09:21:23;101348.13;;;20.97;47.74
70750;BME280;58342;45.568;10.008;2023-01-29T09:23:50;101346.22;;;20.98;47.60
70750;BME280;58342;45.568;10.008;2023-01-29T09:26:17;101347.38;;;20.97;47.38
70750;BME280;58342;45.568;10.008;2023-01-29T09:28:43;101341.59;;;20.95;47.32
70750;BME280;58342;45.568;10.008;2023-01-29T09:31:11;101343.91;;;20.96;47.23
70750;BME280;58342;45.568;10.008;2023-01-29T09:33:37;101324.59;;;20.84;47.18
70750;BME280;58342;45.568;10.008;2023-01-29T09:36:04;101342.41;;;20.99;47.16
70750;BME280;58342;45.568;10.008;2023-01-29T09:38:31;101342.41;;;20.99;46.92
70750;BME280;58342;45.568;10.008;2023-01-29T09:41:21;101345.44;;;20.97;47.07
70750;BME280;58342;45.568;10.008;2023-01-29T09:44:10;101344.69;;;20.97;46.86
70750;BME280;58342;45.568;10.008;2023-01-29T09:46:46;101345.41;;;20.94;46.83
70750;BME280;58342;45.568;10.008;2023-01-29T09:49:29;101346.19;;;20.94;46.75
70750;BME280;58342;45.568;10.008;2023-01-29T09:52:09;101337.03;;;20.95;46.82
70750;BME280;58342;45.568;10.008;2023-01-29T09:54:50;101339.72;;;20.95;46.57
70750;BME280;58342;45.568;10.008;2023-01-29T10:05:47;101338.91;;;20.95;46.42
70750;BME280;58342;45.568;10.008;2023-01-29T10:11:11;101327.72;;;20.89;46.59
70750;BME280;58342;45.568;10.008;2023-01-29T10:25:45;101307.38;;;20.81;46.19
70750;BME280;58342;45.568;10.008;2023-01-29T10:28:44;101310.84;;;20.85;46.21
70750;BME280;58342;45.568;10.008;2023-01-29T10:33:51;101300.59;;;20.87;46.27
70750;BME280;58342;45.568;10.008;2023-01-29T10:36:22;101283.59;;;20.76;46.14
70750;BME280;58342;45.568;10.008;2023-01-29T10:38:54;101281.66;;;20.73;46.19
70750;BME280;58342;45.568;10.008;2023-01-29T10:41:46;101294.09;;;20.88;46.19
70750;BME280;58342;45.568;10.008;2023-01-29T10:50:09;101281.88;;;20.87;46.00
70750;BME280;58342;45.568;10.008;2023-01-29T10:52:41;101284.91;;;20.86;45.96
70750;BME280;58342;45.568;10.008;2023-01-29T10:58:08;101276.88;;;20.86;46.00
70750;BME280;58342;45.568;10.008;2023-01-29T11:00:44;101248.34;;;20.67;46.00
70750;BME280;58342;45.568;10.008;2023-01-29T11:03:13;101266.56;;;20.84;45.93
70750;BME280;58342;45.568;10.008;2023-01-29T11:08:39;101257.00;;;20.83;45.88
70750;BME280;58342;45.568;10.008;2023-01-29T11:11:15;101252.00;;;20.82;45.78
70750;BME280;58342;45.568;10.008;2023-01-29T11:13:55;101236.16;;;20.70;45.89
70750;BME280;58342;45.568;10.008;2023-01-29T11:16:23;101234.78;;;20.79;45.96
70750;BME280;58342;45.568;10.008;2023-01-29T11:18:59;101237.09;;;20.81;45.77
70750;BME280;58342;45.568;10.008;2023-01-29T11:21:27;101214.44;;;20.71;45.84
70750;BME280;58342;45.568;10.008;2023-01-29T11:24:11;101220.66;;;20.79;45.87
70750;BME280;58342;45.568;10.008;2023-01-29T11:26:45;101201.84;;;20.72;45.86
70750;BME280;58342;45.568;10.008;2023-01-29T11:29:41;101213.00;;;20.77;45.71
70750;BME280;58342;45.568;10.008;2023-01-29T11:37:37;101185.88;;;20.75;45.75
70750;BME280;58342;45.568;10.008;2023-01-29T11:40:37;101191.22;;;20.75;45.80
70750;BME280;58342;45.568;10.008;2023-01-29T11:43:11;101178.97;;;20.74;45.66
70750;BME280;58342;45.568;10.008;2023-01-29T11:45:42;101175.53;;;20.74;45.78
70750;BME280;58342;45.568;10.008;2023-01-29T11:48:25;101170.16;;;20.70;45.81
70750;BME280;58342;45.568;10.008;2023-01-29T11:50:59;101169.72;;;20.68;45.72
70750;BME280;58342;45.568;10.008;2023-01-29T11:53:35;101167.13;;;20.72;45.80
70750;BME280;58342;45.568;10.008;2023-01-29T11:58:46;101151.41;;;20.67;45.84
70750;BME280;58342;45.568;10.008;2023-01-29T12:01:15;101147.91;;;20.63;45.70
70750;BME280;58342;45.568;10.008;2023-01-29T12:03:48;101157.13;;;20.69;45.88
70750;BME280;58342;45.568;10.008;2023-01-29T12:06:20;101131.41;;;20.57;45.85
70750;BME280;58342;45.568;10.008;2023-01-29T12:08:58;101146.81;;;20.67;45.76
70750;BME280;58342;45.568;10.008;2023-01-29T12:11:33;101100.44;;;20.27;45.66
70750;BME280;58342;45.568;10.008;2023-01-29T12:14:03;101144.50;;;20.66;45.87
70750;BME280;58342;45.568;10.008;2023-01-29T12:16:36;101145.63;;;20.65;45.80
70750;BME280;58342;45.568;10.008;2023-01-29T12:19:10;101157.09;;;20.65;45.65
70750;BME280;58342;45.568;10.008;2023-01-29T12:22:31;101137.50;;;20.58;45.79
70750;BME280;58342;45.568;10.008;2023-01-29T12:24:56;101142.97;;;20.65;45.81
70750;BME280;58342;45.568;10.008;2023-01-29T12:30:16;101134.16;;;20.64;45.77
70750;BME280;58342;45.568;10.008;2023-01-29T12:32:50;101127.28;;;20.63;45.63
70750;BME280;58342;45.568;10.008;2023-01-29T12:38:16;101124.97;;;20.62;45.76
70750;BME280;58342;45.568;10.008;2023-01-29T12:43:23;101120.75;;;20.61;45.66
70750;BME280;58342;45.568;10.008;2023-01-29T12:45:55;101124.22;;;20.61;45.86
70750;BME280;58342;45.568;10.008;2023-01-29T12:48:36;101116.19;;;20.61;45.79
70750;BME280;58342;45.568;10.008;2023-01-29T12:51:07;101078.50;;;20.40;45.57
70750;BME280;58342;45.568;10.008;2023-01-29T12:56:34;101097.50;;;20.61;45.67
70750;BME280;58342;45.568;10.008;2023-01-29T12:59:09;101104.38;;;20.62;45.61
70750;BME280;58342;45.568;10.008;2023-01-29T13:01:51;101094.47;;;20.63;45.74
70750;BME280;58342;45.568;10.008;2023-01-29T13:04:34;101090.66;;;20.64;45.74
70750;BME280;58342;45.568;10.008;2023-01-29T13:07:11;101085.31;;;20.64;45.60
70750;BME280;58342;45.568;10.008;2023-01-29T13:09:51;101078.06;;;20.64;45.61
70750;BME280;58342;45.568;10.008;2023-01-29T13:12:19;101060.00;;;20.54;45.74
70750;BME280;58342;45.568;10.008;2023-01-29T13:15:08;101072.34;;;20.66;45.67
70750;BME280;58342;45.568;10.008;2023-01-29T13:17:48;101072.00;;;20.67;45.65
70750;BME280;58342;45.568;10.008;2023-01-29T13:20:28;101064.41;;;20.69;45.53
70750;BME280;58342;45.568;10.008;2023-01-29T13:23:17;101065.50;;;20.68;45.56
70750;BME280;58342;45.568;10.008;2023-01-29T13:25:45;101066.72;;;20.71;45.47
70750;BME280;58342;45.568;10.008;2023-01-29T13:28:19;101054.88;;;20.72;45.52
70750;BME280;58342;45.568;10.008;2023-01-29T13:34:00;101051.06;;;20.73;45.46
70750;BME280;58342;45.568;10.008;2023-01-29T13:36:30;101051.09;;;20.76;45.48
70750;BME280;58342;45.568;10.008;2023-01-29T13:39:06;101028.50;;;20.67;45.33
70750;BME280;58342;45.568;10.008;2023-01-29T13:41:40;101013.50;;;20.59;45.41
70750;BME280;58342;45.568;10.008;2023-01-29T13:44:38;101037.44;;;20.81;45.32
70750;BME280;58342;45.568;10.008;2023-01-29T13:47:10;101035.16;;;20.83;45.23
70750;BME280;58342;45.568;10.008;2023-01-29T13:55:03;101041.31;;;20.87;45.37
70750;BME280;58342;45.568;10.008;2023-01-29T14:07:57;101028.44;;;20.93;45.06
70750;BME280;58342;45.568;10.008;2023-01-29T14:10:26;101029.97;;;20.94;45.19
70750;BME280;58342;45.568;10.008;2023-01-29T14:12:54;101025.78;;;20.96;45.07
70750;BME280;58342;45.568;10.008;2023-01-29T14:15:41;101029.25;;;20.97;45.03
70750;BME280;58342;45.568;10.008;2023-01-29T14:18:25;101019.72;;;20.99;45.09
70750;BME280;58342;45.568;10.008;2023-01-29T14:23:45;100993.59;;;20.89;45.08
70750;BME280;58342;45.568;10.008;2023-01-29T14:29:16;101015.19;;;21.03;45.10
70750;BME280;58342;45.568;10.008;2023-01-29T14:31:56;101009.88;;;21.07;45.02
70750;BME280;58342;45.568;10.008;2023-01-29T14:34:27;101012.19;;;21.08;44.89
70750;BME280;58342;45.568;10.008;2023-01-29T14:39:48;101023.25;;;21.10;44.86
70750;BME280;58342;45.568;10.008;2023-01-29T14:42:23;101014.84;;;21.08;44.89
70750;BME280;58342;45.568;10.008;2023-01-29T14:44:57;101013.78;;;21.13;44.86
70750;BME280;58342;45.568;10.008;2023-01-29T14:58:48;101011.56;;;21.22;44.68
70750;BME280;58342;45.568;10.008;2023-01-29T15:01:24;101003.03;;;21.09;44.74
70750;BME280;58342;45.568;10.008;2023-01-29T15:04:02;100987.69;;;21.03;44.66
70750;BME280;58342;45.568;10.008;2023-01-29T15:09:48;101018.47;;;21.26;44.60
70750;BME280;58342;45.568;10.008;2023-01-29T15:12:27;101021.56;;;21.28;44.65
70750;BME280;58342;45.568;10.008;2023-01-29T15:20:34;101009.38;;;21.34;44.58
70750;BME280;58342;45.568;10.008;2023-01-29T15:25:49;100997.53;;;21.35;44.39
70750;BME280;58342;45.568;10.008;2023-01-29T15:28:18;100991.34;;;21.28;44.52
70750;BME280;58342;45.568;10.008;2023-01-29T15:30:45;100977.91;;;21.21;44.39
70750;BME280;58342;45.568;10.008;2023-01-29T15:33:17;101007.13;;;21.40;44.37